createdAt,value
2023-05-13T00:01:45.996Z,58.30
2023-05-13T00:04:13.563Z,55.72
2023-05-13T00:06:41.268Z,60.60
2023-05-13T00:09:08.791Z,57.95
2023-05-13T00:11:36.350Z,60.30
2023-05-13T00:14:04.288Z,57.70
2023-05-13T00:16:32.244Z,61.97
2023-05-13T00:18:59.805Z,63.47
2023-05-13T00:21:27.935Z,63.42
2023-05-13T00:23:55.862Z,55.85
2023-05-13T00:26:23.382Z,58.10
2023-05-13T00:28:51.277Z,64.20
2023-05-13T00:31:18.951Z,63.50
2023-05-13T00:33:46.356Z,59.42
2023-05-13T00:36:14.677Z,64.10
2023-05-13T00:38:44.410Z,62.58
2023-05-13T00:41:12.888Z,62.33
2023-05-13T00:43:40.593Z,62.08
2023-05-13T00:46:08.395Z,68.22
2023-05-13T00:48:36.201Z,66.32
2023-05-13T00:51:04.546Z,66.75
2023-05-13T00:53:34.170Z,62.30
2023-05-13T00:56:02.292Z,66.20
2023-05-13T00:58:29.797Z,64.57
2023-05-13T01:01:09.205Z,64.97
2023-05-13T01:04:12.404Z,62.72
2023-05-13T01:06:52.605Z,64.57
2023-05-13T01:09:39.559Z,60.72
2023-05-13T01:12:19.241Z,62.88
2023-05-13T01:14:55.485Z,59.53
2023-05-13T01:17:33.474Z,57.67
2023-05-13T01:20:05.213Z,58.67
2023-05-13T01:22:32.890Z,51.83
2023-05-13T01:25:01.183Z,54.70
2023-05-13T01:27:30.912Z,50.47
2023-05-13T01:29:58.632Z,58.95
2023-05-13T01:32:32.440Z,65.55
2023-05-13T01:35:01.218Z,63.58
2023-05-13T01:37:31.705Z,61.65
2023-05-13T01:39:59.483Z,60.53
2023-05-13T01:42:30.025Z,63.42
2023-05-13T01:44:58.548Z,64.80
2023-05-13T01:47:26.110Z,67.80
2023-05-13T01:49:53.725Z,64.50
2023-05-13T01:52:21.324Z,62.70
2023-05-13T01:54:49.147Z,63.42
2023-05-13T01:57:16.886Z,63.47
2023-05-13T01:59:44.486Z,63.45
2023-05-13T02:02:12.783Z,64.80
2023-05-13T02:04:40.294Z,67.00
2023-05-13T02:07:07.834Z,65.68
2023-05-13T02:09:35.425Z,62.13
2023-05-13T02:12:06.192Z,62.13
2023-05-13T02:14:33.687Z,66.13
2023-05-13T02:17:03.611Z,60.55
2023-05-13T02:19:31.292Z,61.40
2023-05-13T02:21:58.837Z,61.30
2023-05-13T02:24:26.490Z,58.60
2023-05-13T02:26:54.748Z,58.50
2023-05-13T02:29:22.269Z,60.97
2023-05-13T02:31:49.832Z,64.57
2023-05-13T02:34:17.865Z,59.08
2023-05-13T02:36:45.501Z,66.70
2023-05-13T02:39:13.232Z,59.75
2023-05-13T02:41:40.785Z,60.22
2023-05-13T02:44:08.492Z,60.78
2023-05-13T02:46:36.128Z,60.92
2023-05-13T02:49:03.863Z,52.28
2023-05-13T02:51:32.279Z,51.05
2023-05-13T02:53:59.890Z,55.95
2023-05-13T02:56:28.044Z,54.08
2023-05-13T02:58:56.392Z,52.83
2023-05-13T03:01:24.065Z,56.42
2023-05-13T03:03:51.558Z,52.50
2023-05-13T03:06:19.173Z,53.95
2023-05-13T03:08:46.726Z,51.85
2023-05-13T03:11:14.246Z,50.95
2023-05-13T03:13:41.797Z,53.25
2023-05-13T03:16:10.224Z,53.50
2023-05-13T03:18:37.717Z,51.10
2023-05-13T03:21:05.283Z,50.13
2023-05-13T03:23:34.023Z,51.33
2023-05-13T03:26:02.487Z,51.80
2023-05-13T03:28:31.586Z,54.83
2023-05-13T03:30:59.197Z,50.58
2023-05-13T03:33:30.065Z,50.17
2023-05-13T03:35:57.956Z,50.85
2023-05-13T03:38:29.970Z,55.60
2023-05-13T03:40:57.892Z,52.50
2023-05-13T03:43:26.358Z,50.83
2023-05-13T03:45:58.755Z,49.33
2023-05-13T03:48:27.829Z,49.72
2023-05-13T03:50:58.114Z,53.20
2023-05-13T03:53:25.653Z,51.50
2023-05-13T03:55:54.893Z,50.30
2023-05-13T03:58:23.085Z,49.67
2023-05-13T04:00:50.820Z,53.63
2023-05-13T04:03:19.020Z,47.00
2023-05-13T04:05:47.481Z,49.97
2023-05-13T04:08:15.550Z,45.33
2023-05-13T04:10:43.996Z,51.08
2023-05-13T04:13:11.805Z,51.70
2023-05-13T04:15:39.324Z,47.47
2023-05-13T04:18:07.091Z,47.75
2023-05-13T04:20:35.273Z,51.10
2023-05-13T04:23:02.801Z,52.72
2023-05-13T04:25:30.317Z,46.58
2023-05-13T04:27:58.050Z,45.58
2023-05-13T04:30:30.776Z,49.42
2023-05-13T04:32:58.248Z,53.05
2023-05-13T04:35:26.432Z,45.97
2023-05-13T04:37:58.149Z,52.42
2023-05-13T04:40:26.775Z,46.42
2023-05-13T04:42:56.555Z,44.67
2023-05-13T04:45:28.922Z,47.55
2023-05-13T04:47:58.366Z,53.00
2023-05-13T04:50:26.590Z,45.97
2023-05-13T04:52:55.099Z,43.92
2023-05-13T04:55:23.758Z,47.53
2023-05-13T04:57:51.808Z,45.78
2023-05-13T05:00:19.514Z,46.65
2023-05-13T05:02:49.519Z,43.47
2023-05-13T05:05:18.567Z,44.28
2023-05-13T05:07:46.980Z,45.15
2023-05-13T05:10:15.856Z,47.70
2023-05-13T05:12:49.149Z,44.40
2023-05-13T05:15:16.737Z,42.97
2023-05-13T05:17:47.992Z,42.78
2023-05-13T05:20:17.192Z,43.83
2023-05-13T05:22:48.725Z,42.03
2023-05-13T05:25:18.082Z,41.60
2023-05-13T05:27:45.565Z,40.58
2023-05-13T05:30:13.740Z,40.35
2023-05-13T05:32:41.724Z,46.08
2023-05-13T05:35:09.760Z,43.90
2023-05-13T05:37:37.362Z,40.67
2023-05-13T05:40:06.228Z,41.65
2023-05-13T05:45:06.698Z,39.22
2023-05-13T05:47:34.405Z,42.22
2023-05-13T05:50:02.358Z,39.92
2023-05-13T05:52:30.875Z,42.53
2023-05-13T05:54:58.976Z,44.90
2023-05-13T05:57:26.403Z,40.97
2023-05-13T05:59:54.011Z,43.30
2023-05-13T06:02:21.661Z,42.85
2023-05-13T06:04:51.924Z,41.30
2023-05-13T06:07:20.732Z,42.35
2023-05-13T06:09:48.668Z,41.08
2023-05-13T06:12:16.269Z,41.92
2023-05-13T06:14:44.006Z,41.35
2023-05-13T06:17:11.491Z,40.67
2023-05-13T06:19:38.936Z,44.13
2023-05-13T06:22:06.457Z,39.03
2023-05-13T06:24:36.377Z,43.33
2023-05-13T06:27:04.183Z,39.50
2023-05-13T06:29:31.798Z,37.60
2023-05-13T06:31:59.376Z,41.50
2023-05-13T06:34:26.920Z,41.05
2023-05-13T06:36:54.837Z,42.97
2023-05-13T06:39:22.434Z,43.88
2023-05-13T06:41:50.287Z,39.70
2023-05-13T06:44:17.796Z,39.83
2023-05-13T06:46:47.636Z,43.90
2023-05-13T06:49:15.151Z,41.78
2023-05-13T06:51:42.742Z,43.92
2023-05-13T06:54:10.237Z,43.95
2023-05-13T06:56:37.723Z,40.67
2023-05-13T06:59:05.255Z,40.72
2023-05-13T07:01:32.797Z,39.08
2023-05-13T07:04:00.508Z,40.10
2023-05-13T07:06:28.037Z,41.10
2023-05-13T07:08:55.560Z,39.67
2023-05-13T07:11:22.996Z,41.55
2023-05-13T07:13:50.633Z,43.47
2023-05-13T07:16:18.281Z,43.70
2023-05-13T07:18:46.015Z,54.05
2023-05-13T07:21:15.847Z,52.83
2023-05-13T07:23:44.548Z,47.75
2023-05-13T07:26:12.559Z,46.40
2023-05-13T07:28:40.177Z,43.78
2023-05-13T07:31:07.978Z,43.90
2023-05-13T07:33:36.565Z,40.35
2023-05-13T07:36:04.293Z,42.17
2023-05-13T07:38:31.811Z,47.40
2023-05-13T07:40:59.308Z,44.33
2023-05-13T07:43:28.141Z,44.20
2023-05-13T07:45:55.935Z,45.90
2023-05-13T07:48:25.607Z,41.10
2023-05-13T07:50:53.076Z,40.90
2023-05-13T07:53:21.832Z,42.28
2023-05-13T07:55:49.413Z,43.72
2023-05-13T07:58:18.839Z,47.05
2023-05-13T08:00:46.374Z,57.05
2023-05-13T08:03:13.927Z,59.33
2023-05-13T08:05:41.674Z,58.10
2023-05-13T08:08:09.204Z,63.88
2023-05-13T08:10:36.719Z,66.18
2023-05-13T08:13:04.135Z,70.75
2023-05-13T08:15:31.632Z,80.97
2023-05-13T08:17:59.059Z,79.93
2023-05-13T08:20:30.364Z,74.47
2023-05-13T08:22:58.658Z,76.28
2023-05-13T08:25:26.492Z,77.82
2023-05-13T08:27:54.199Z,85.40
2023-05-13T08:30:22.145Z,95.03
2023-05-13T08:32:49.721Z,92.15
2023-05-13T08:35:17.265Z,87.68
2023-05-13T08:37:44.773Z,88.68
2023-05-13T08:40:12.568Z,94.47
2023-05-13T08:42:41.331Z,104.60
2023-05-13T08:45:10.440Z,109.45
2023-05-13T08:47:56.894Z,114.05
2023-05-13T08:50:26.004Z,118.47
2023-05-13T08:52:56.664Z,110.63
2023-05-13T08:55:27.440Z,117.22
2023-05-13T08:57:55.264Z,108.13
2023-05-13T09:00:22.772Z,106.65
2023-05-13T09:02:51.504Z,108.75
2023-05-13T09:05:20.556Z,113.97
2023-05-13T09:07:48.275Z,113.30
2023-05-13T09:10:18.033Z,106.53
2023-05-13T09:12:49.374Z,109.50
2023-05-13T09:15:22.456Z,105.45
2023-05-13T09:18:02.594Z,110.85
2023-05-13T09:20:31.322Z,113.40
2023-05-13T09:23:20.897Z,114.22
2023-05-13T09:25:48.504Z,114.20
2023-05-13T09:28:16.153Z,114.00
2023-05-13T09:30:46.832Z,116.85
2023-05-13T09:33:16.545Z,114.55
2023-05-13T09:35:49.173Z,120.50
2023-05-13T09:38:22.078Z,119.60
2023-05-13T09:41:00.969Z,112.90
2023-05-13T09:43:32.739Z,118.85
2023-05-13T09:46:05.241Z,118.63
2023-05-13T09:48:33.869Z,119.63
2023-05-13T09:51:01.751Z,120.65
2023-05-13T09:53:29.319Z,112.78
2023-05-13T09:55:58.133Z,116.15
2023-05-13T09:58:28.843Z,119.00
2023-05-13T10:00:57.111Z,117.85
2023-05-13T10:03:25.125Z,105.07
2023-05-13T10:05:53.949Z,113.45
2023-05-13T10:08:22.656Z,105.10
2023-05-13T10:10:53.596Z,110.60
2023-05-13T10:13:24.706Z,111.78
2023-05-13T10:15:54.574Z,112.65
2023-05-13T10:18:24.350Z,113.65
2023-05-13T10:20:55.167Z,112.70
2023-05-13T10:23:24.879Z,124.18
2023-05-13T10:25:54.523Z,101.65
2023-05-13T10:28:22.712Z,111.07
2023-05-13T10:30:51.691Z,106.90
2023-05-13T10:33:20.047Z,114.05
2023-05-13T10:36:06.255Z,110.22
2023-05-13T10:38:58.482Z,100.18
2023-05-13T10:41:54.767Z,99.75
2023-05-13T10:44:24.129Z,102.38
2023-05-13T10:46:51.832Z,106.82
2023-05-13T10:49:19.532Z,107.55
2023-05-13T10:51:49.531Z,115.72
2023-05-13T10:54:21.512Z,115.60
2023-05-13T10:56:59.541Z,109.70
2023-05-13T10:59:30.847Z,114.10
2023-05-13T11:02:02.342Z,110.28
2023-05-13T11:04:29.993Z,103.00
2023-05-13T11:07:16.890Z,102.05
2023-05-13T11:09:50.592Z,110.40
2023-05-13T11:12:18.120Z,118.25
2023-05-13T11:14:46.140Z,137.60
2023-05-13T11:17:14.427Z,143.55
2023-05-13T11:19:50.572Z,152.30
2023-05-13T11:22:24.480Z,136.25
2023-05-13T11:25:09.916Z,149.00
2023-05-13T11:27:41.901Z,142.70
2023-05-13T11:30:24.859Z,141.20
2023-05-13T11:35:28.166Z,133.23
2023-05-13T11:37:58.389Z,134.55
2023-05-13T11:40:35.750Z,133.63
2023-05-13T11:43:05.391Z,134.13
2023-05-13T11:45:34.129Z,137.95
2023-05-13T11:48:22.500Z,143.80
2023-05-13T11:50:51.170Z,140.75
2023-05-13T11:53:25.342Z,138.10
2023-05-13T11:55:52.966Z,143.88
2023-05-13T11:58:21.773Z,137.95
2023-05-13T12:00:49.293Z,139.07
2023-05-13T12:03:16.961Z,138.88
2023-05-13T12:05:44.898Z,152.52
2023-05-13T12:08:12.469Z,145.18
2023-05-13T12:10:46.145Z,145.55
2023-05-13T12:13:14.152Z,142.45
2023-05-13T12:15:42.509Z,152.68
2023-05-13T12:18:10.220Z,138.85
2023-05-13T12:20:38.605Z,140.73
2023-05-13T12:23:06.770Z,145.32
2023-05-13T12:25:37.560Z,147.55
2023-05-13T12:28:20.291Z,148.82
2023-05-13T12:31:04.005Z,145.52
2023-05-13T12:33:32.370Z,155.68
2023-05-13T12:36:20.462Z,154.15
2023-05-13T12:39:05.610Z,150.50
2023-05-13T12:41:35.380Z,156.07
2023-05-13T12:44:10.094Z,161.15
2023-05-13T12:46:38.164Z,158.35
2023-05-13T12:49:06.305Z,160.40
2023-05-13T12:51:34.497Z,159.90
2023-05-13T12:54:02.173Z,155.15
2023-05-13T12:56:29.869Z,153.93
2023-05-13T12:58:58.051Z,155.32
2023-05-13T13:01:25.705Z,159.32
2023-05-13T13:03:53.295Z,165.15
2023-05-13T13:06:21.051Z,161.75
2023-05-13T13:08:48.619Z,160.93
2023-05-13T13:11:19.109Z,168.75
2023-05-13T13:13:47.096Z,170.00
2023-05-13T13:16:15.041Z,168.52
2023-05-13T13:18:43.274Z,158.93
2023-05-13T13:21:11.105Z,156.57
2023-05-13T13:23:38.709Z,165.65
2023-05-13T13:26:06.344Z,161.75
2023-05-13T13:28:33.951Z,158.82
2023-05-13T13:31:01.578Z,155.07
2023-05-13T13:33:29.079Z,154.40
2023-05-13T13:35:56.556Z,127.00
2023-05-13T13:38:24.134Z,129.90
2023-05-13T13:40:51.600Z,129.75
2023-05-13T13:43:19.832Z,129.07
2023-05-13T13:45:47.414Z,127.63
2023-05-13T13:48:14.985Z,133.63
2023-05-13T13:50:42.526Z,126.05
2023-05-13T13:53:10.047Z,130.85
2023-05-13T13:55:37.585Z,124.47
2023-05-13T13:58:05.266Z,126.95
2023-05-13T14:00:32.756Z,132.63
2023-05-13T14:03:01.846Z,131.00
2023-05-13T14:05:29.552Z,122.30
2023-05-13T14:07:57.130Z,123.03
2023-05-13T14:10:24.636Z,125.90
2023-05-13T14:12:52.296Z,134.27
2023-05-13T14:15:19.757Z,126.75
2023-05-13T14:17:47.326Z,125.28
2023-05-13T14:20:14.798Z,131.13
2023-05-13T14:22:42.268Z,127.68
2023-05-13T14:25:10.240Z,128.75
2023-05-13T14:27:37.772Z,125.90
2023-05-13T14:30:07.086Z,125.97
2023-05-13T14:32:34.988Z,132.50
2023-05-13T14:35:02.499Z,126.55
2023-05-13T14:37:31.200Z,131.52
2023-05-13T14:39:59.349Z,136.52
2023-05-13T14:42:26.869Z,139.20
2023-05-13T14:44:54.332Z,130.75
2023-05-13T14:47:21.840Z,126.65
2023-05-13T14:49:49.256Z,94.90
2023-05-13T14:52:16.670Z,102.70
2023-05-13T14:54:44.275Z,74.22
2023-05-13T14:57:11.855Z,80.35
2023-05-13T14:59:39.401Z,72.20
2023-05-13T15:02:06.998Z,65.10
2023-05-13T15:04:34.467Z,59.42
2023-05-13T15:07:03.628Z,57.90
2023-05-13T15:09:31.248Z,60.70
2023-05-13T15:11:58.690Z,51.25
2023-05-13T15:14:26.466Z,54.25
2023-05-13T15:16:54.061Z,52.13
2023-05-13T15:19:21.636Z,52.15
2023-05-13T15:21:49.078Z,52.47
2023-05-13T15:24:16.580Z,56.85
2023-05-13T15:26:44.116Z,53.90
2023-05-13T15:29:11.618Z,54.45
2023-05-13T15:31:39.040Z,52.40
2023-05-13T15:34:06.510Z,53.58
2023-05-13T15:36:37.027Z,51.05
2023-05-13T15:39:04.798Z,45.85
2023-05-13T15:41:32.362Z,47.17
2023-05-13T15:43:59.870Z,45.67
2023-05-13T15:46:27.510Z,44.75
2023-05-13T15:48:55.067Z,38.67
2023-05-13T15:51:22.661Z,34.50
2023-05-13T15:53:50.104Z,36.88
2023-05-13T15:56:17.711Z,31.35
2023-05-13T15:58:45.282Z,32.42
2023-05-13T16:01:12.961Z,27.67
2023-05-13T16:03:40.400Z,27.83
2023-05-13T16:06:07.959Z,24.52
2023-05-13T16:08:35.683Z,25.65
2023-05-13T16:11:04.007Z,26.58
2023-05-13T16:13:31.532Z,26.10
2023-05-13T16:15:59.035Z,21.42
2023-05-13T16:18:27.044Z,21.38
2023-05-13T16:20:55.192Z,22.00
2023-05-13T16:23:22.709Z,24.55
2023-05-13T16:25:50.319Z,19.15
2023-05-13T16:28:17.734Z,18.73
2023-05-13T16:30:45.269Z,22.77
2023-05-13T16:33:15.010Z,20.77
2023-05-13T16:35:42.471Z,22.52
2023-05-13T16:38:10.044Z,21.88
2023-05-13T16:40:37.530Z,21.95
2023-05-13T16:43:05.054Z,21.70
2023-05-13T16:45:32.505Z,21.77
2023-05-13T16:48:00.094Z,19.75
2023-05-13T16:50:27.875Z,19.30
2023-05-13T16:52:55.402Z,22.80
2023-05-13T16:55:22.964Z,20.27
2023-05-13T16:57:50.506Z,21.25
2023-05-13T17:00:18.231Z,18.42
2023-05-13T17:02:45.976Z,20.10
2023-05-13T17:05:13.423Z,20.52
2023-05-13T17:07:40.985Z,17.42
2023-05-13T17:10:08.978Z,18.63
2023-05-13T17:12:36.526Z,19.30
2023-05-13T17:15:04.455Z,18.83
2023-05-13T17:17:32.122Z,20.00
2023-05-13T17:19:59.671Z,16.95
2023-05-13T17:22:27.300Z,17.38
2023-05-13T17:24:54.746Z,16.73
2023-05-13T17:27:22.242Z,16.33
2023-05-13T17:29:49.753Z,16.05
2023-05-13T17:32:17.349Z,17.45
2023-05-13T17:34:44.868Z,17.00
2023-05-13T17:37:12.483Z,16.13
2023-05-13T17:39:39.990Z,15.15
2023-05-13T17:42:07.620Z,16.17
2023-05-13T17:44:35.142Z,16.92
2023-05-13T17:47:02.630Z,14.75
2023-05-13T17:49:30.192Z,14.60
2023-05-13T17:51:58.736Z,17.35
2023-05-13T17:54:26.313Z,16.60
2023-05-13T17:56:53.871Z,19.83
2023-05-13T17:59:22.948Z,18.73
2023-05-13T18:01:50.452Z,19.50
2023-05-13T18:04:17.964Z,14.70
2023-05-13T18:06:45.692Z,13.80
2023-05-13T18:09:13.218Z,18.85
2023-05-13T18:11:40.836Z,15.25
2023-05-13T18:14:08.501Z,18.08
2023-05-13T18:16:36.311Z,14.65
2023-05-13T18:19:04.027Z,15.45
2023-05-13T18:21:31.972Z,15.20
2023-05-13T18:23:59.515Z,16.35
2023-05-13T18:26:27.240Z,12.48
2023-05-13T18:28:54.707Z,14.63
2023-05-13T18:31:22.209Z,17.70
2023-05-13T18:33:49.754Z,15.75
2023-05-13T18:36:20.189Z,14.45
2023-05-13T18:38:48.281Z,16.40
2023-05-13T18:41:16.632Z,15.52
2023-05-13T18:43:44.056Z,14.35
2023-05-13T18:46:12.114Z,14.85
2023-05-13T18:48:39.831Z,18.13
2023-05-13T18:51:07.328Z,14.70
2023-05-13T18:53:34.850Z,17.75
2023-05-13T18:56:03.567Z,15.45
2023-05-13T18:58:31.076Z,13.57
2023-05-13T19:00:58.585Z,14.15
2023-05-13T19:03:27.209Z,12.88
2023-05-13T19:05:55.036Z,16.35
2023-05-13T19:08:22.904Z,14.85
2023-05-13T19:10:50.517Z,13.48
2023-05-13T19:13:20.105Z,14.32
2023-05-13T19:15:47.552Z,15.48
2023-05-13T19:18:15.381Z,15.20
2023-05-13T19:20:43.952Z,12.57
2023-05-13T19:23:11.539Z,14.48
2023-05-13T19:25:42.526Z,14.23
2023-05-13T19:28:11.550Z,15.13
2023-05-13T19:30:39.684Z,13.63
2023-05-13T19:33:08.324Z,14.48
2023-05-13T19:35:36.753Z,16.48
2023-05-13T19:38:04.205Z,15.98
2023-05-13T19:40:31.734Z,15.18
2023-05-13T19:42:59.253Z,15.77
2023-05-13T19:45:26.826Z,14.55
2023-05-13T19:47:54.358Z,12.90
2023-05-13T19:50:22.161Z,13.50
2023-05-13T19:52:49.866Z,16.73
2023-05-13T19:55:17.391Z,15.40
2023-05-13T19:57:44.874Z,17.02
2023-05-13T20:00:13.155Z,12.23
2023-05-13T20:02:40.971Z,12.77
2023-05-13T20:05:09.127Z,14.27
2023-05-13T20:07:36.654Z,14.75
2023-05-13T20:10:04.756Z,14.38
2023-05-13T20:12:32.693Z,15.43
2023-05-13T20:15:00.700Z,17.13
2023-05-13T20:17:28.339Z,15.82
2023-05-13T20:19:56.246Z,15.32
2023-05-13T20:22:23.749Z,15.98
2023-05-13T20:24:52.153Z,15.63
2023-05-13T20:27:19.524Z,17.45
2023-05-13T20:29:48.268Z,14.02
2023-05-13T20:32:21.507Z,14.45
2023-05-13T20:34:49.002Z,15.77
2023-05-13T20:37:17.185Z,13.93
2023-05-13T20:39:44.843Z,15.77
2023-05-13T20:42:12.352Z,14.90
2023-05-13T20:44:40.041Z,14.27
2023-05-13T20:47:08.053Z,14.88
2023-05-13T20:49:35.543Z,14.38
2023-05-13T20:52:04.858Z,15.85
2023-05-13T20:54:33.935Z,16.13
2023-05-13T20:57:03.301Z,16.23
2023-05-13T20:59:31.473Z,16.23
2023-05-13T21:01:59.364Z,17.60
2023-05-13T21:04:27.062Z,16.95
2023-05-13T21:06:54.530Z,15.90
2023-05-13T21:09:22.066Z,13.50
2023-05-13T21:11:49.575Z,14.73
2023-05-13T21:14:17.046Z,14.68
2023-05-13T21:16:44.587Z,15.35
2023-05-13T21:19:25.251Z,13.10
2023-05-13T21:21:52.682Z,16.52
2023-05-13T21:24:21.161Z,15.07
2023-05-13T21:26:49.974Z,15.38
2023-05-13T21:29:18.879Z,15.38
2023-05-13T21:31:47.711Z,18.05
2023-05-13T21:34:15.239Z,15.05
2023-05-13T21:36:42.868Z,16.63
2023-05-13T21:39:10.735Z,15.88
2023-05-13T21:41:38.428Z,13.88
2023-05-13T21:44:06.612Z,14.48
2023-05-13T21:46:34.205Z,15.27
2023-05-13T21:49:01.945Z,17.08
2023-05-13T21:51:29.673Z,15.32
2023-05-13T21:53:57.155Z,16.23
2023-05-13T21:56:24.695Z,16.85
2023-05-13T21:58:52.196Z,15.55
2023-05-13T22:01:19.786Z,15.80
2023-05-13T22:03:47.297Z,18.33
2023-05-13T22:06:14.959Z,14.80
2023-05-13T22:08:42.426Z,15.30
2023-05-13T22:11:10.021Z,13.52
2023-05-13T22:13:38.392Z,15.00
2023-05-13T22:16:05.986Z,14.48
2023-05-13T22:18:33.731Z,15.90
2023-05-13T22:21:01.428Z,16.10
2023-05-13T22:23:29.032Z,15.07
2023-05-13T22:25:56.384Z,16.33
2023-05-13T22:28:23.848Z,17.40
2023-05-13T22:30:52.314Z,17.17
2023-05-13T22:33:19.934Z,17.85
2023-05-13T22:35:47.578Z,19.60
2023-05-13T22:38:15.194Z,16.50
2023-05-13T22:40:42.919Z,15.45
2023-05-13T22:43:10.357Z,16.70
2023-05-13T22:45:38.153Z,15.73
2023-05-13T22:48:05.914Z,16.83
2023-05-13T22:50:33.557Z,18.42
2023-05-13T22:53:00.996Z,17.48
2023-05-13T22:55:28.471Z,16.52
2023-05-13T22:57:56.064Z,16.83
2023-05-13T23:00:23.700Z,17.67
2023-05-13T23:02:51.482Z,16.73
2023-05-13T23:05:19.437Z,16.95
2023-05-13T23:07:47.206Z,16.70
2023-05-13T23:10:14.760Z,15.90
2023-05-13T23:12:42.428Z,17.27
2023-05-13T23:15:11.920Z,17.33
2023-05-13T23:17:39.527Z,19.27
2023-05-13T23:20:07.796Z,15.90
2023-05-13T23:22:35.575Z,20.30
2023-05-13T23:25:04.018Z,17.55
2023-05-13T23:27:35.010Z,17.13
2023-05-13T23:30:02.536Z,18.42
2023-05-13T23:32:31.631Z,17.27
2023-05-13T23:34:59.215Z,17.08
2023-05-13T23:37:26.679Z,16.23
2023-05-13T23:39:54.120Z,15.52
2023-05-13T23:42:22.077Z,17.05
2023-05-13T23:44:49.573Z,18.15
2023-05-13T23:47:17.187Z,17.08
2023-05-13T23:49:44.680Z,17.40
2023-05-13T23:52:12.411Z,17.58
2023-05-13T23:54:39.856Z,17.02
2023-05-13T23:57:07.293Z,17.60
2023-05-13T23:59:34.865Z,20.33
